Time;durP1;ratioP1;P1;durP2;ratioP2;P2;SDS_P1;SDS_P2;PMS_P1;PMS_P2;Temp;Humidity;BMP_temperature;BMP_pressure;BME280_temperature;BME280_humidity;BME280_pressure;Samples;Min_cycle;Max_cycle;Signal;HPM_P1;HPM_P2
2023/03/26 00:01:48;;;;;;;0.20;0.20;;;;;;;14.61;59.25;100736.50;5057730;28;20095;-70
2023/03/26 00:04:18;;;;;;;0.35;0.35;;;;;;;14.38;61.03;100737.63;5056860;28;20033;-70
2023/03/26 00:06:47;;;;;;;0.20;0.20;;;;;;;14.72;58.76;100735.56;5057637;28;20525;-70
2023/03/26 00:09:13;;;;;;;0.25;0.25;;;;;;;14.67;58.81;100735.50;5057853;28;20556;-71
2023/03/26 00:11:38;;;;;;;0.20;0.20;;;;;;;14.71;59.25;100729.34;5054278;28;20170;-70
2023/03/26 00:14:04;;;;;;;0.20;0.20;;;;;;;14.81;59.38;100734.84;5056828;28;20116;-71
2023/03/26 00:16:30;;;;;;;0.20;0.20;;;;;;;14.64;59.21;100726.00;5057573;28;20036;-69
2023/03/26 00:18:57;;;;;;;0.32;0.32;;;;;;;14.80;58.87;100735.13;5055674;28;20449;-71
2023/03/26 00:21:27;;;;;;;0.30;0.30;;;;;;;14.53;59.43;100737.78;5056445;28;20053;-69
2023/03/26 00:23:58;;;;;;;0.20;0.20;;;;;;;14.37;60.12;100727.88;5054082;28;20132;-70
2023/03/26 00:26:25;;;;;;;0.20;0.20;;;;;;;14.25;60.69;100747.97;5053748;28;20048;-70
2023/03/26 00:28:51;;;;;;;0.32;0.32;;;;;;;14.63;58.82;100734.38;5054793;28;20048;-69
2023/03/26 00:31:17;;;;;;;0.20;0.20;;;;;;;13.95;61.68;100738.38;5058282;28;20051;-71
2023/03/26 00:33:43;;;;;;;0.20;0.20;;;;;;;14.72;58.60;100730.94;5041629;28;20028;-70
2023/03/26 00:36:13;;;;;;;0.35;0.35;;;;;;;14.54;59.40;100735.91;5050548;28;20044;-70
2023/03/26 00:38:39;;;;;;;0.30;0.30;;;;;;;15.23;57.53;100734.97;5040865;28;20283;-70
2023/03/26 00:41:16;;;;;;;0.30;0.30;;;;;;;14.35;60.76;100738.09;5047206;28;20033;-70
2023/03/26 00:43:43;;;;;;;0.20;0.20;;;;;;;14.28;61.37;100731.25;5035595;28;20028;-69
2023/03/26 00:46:08;;;;;;;0.20;0.20;;;;;;;14.67;59.42;100720.09;5051264;28;20031;-69
2023/03/26 00:48:33;;;;;;;0.20;0.20;;;;;;;14.61;59.22;100712.19;5039250;28;20053;-71
2023/03/26 00:51:00;;;;;;;0.30;0.30;;;;;;;14.10;61.40;100716.16;5047260;28;20098;-68
2023/03/26 00:53:25;;;;;;;0.20;0.20;;;;;;;14.67;59.74;100717.38;5032106;28;20044;-69
2023/03/26 00:55:50;;;;;;;0.25;0.25;;;;;;;15.34;57.51;100708.78;5044884;28;20021;-70
2023/03/26 00:58:16;;;;;;;0.30;0.30;;;;;;;15.79;55.58;100699.09;5041146;28;20163;-69
2023/03/26 01:00:47;;;;;;;0.22;0.22;;;;;;;15.79;56.46;100706.41;5037617;28;20381;-69
2023/03/26 01:03:14;;;;;;;0.30;0.30;;;;;;;15.59;56.76;100704.38;5047225;28;20090;-69
2023/03/26 01:05:45;;;;;;;0.30;0.30;;;;;;;15.18;57.59;100701.59;5042683;28;20037;-69
2023/03/26 01:08:21;;;;;;;0.30;0.30;;;;;;;15.45;57.56;100695.09;5050363;28;20069;-69
2023/03/26 01:10:51;;;;;;;0.30;0.30;;;;;;;15.16;57.97;100695.63;5050642;28;20032;-70
2023/03/26 01:13:22;;;;;;;0.10;0.10;;;;;;;15.55;56.82;100686.19;5050662;28;20032;-69
2023/03/26 01:15:49;;;;;;;0.30;0.30;;;;;;;16.01;55.58;100689.97;5050132;28;20041;-70
2023/03/26 01:18:18;;;;;;;0.40;0.40;;;;;;;15.60;56.57;100692.50;5050376;28;20039;-70
2023/03/26 01:20:48;;;;;;;0.22;0.22;;;;;;;15.98;55.68;100694.03;5050242;28;20112;-70
2023/03/26 01:23:22;;;;;;;0.20;0.20;;;;;;;15.46;56.37;100687.78;5050212;28;20045;-69
2023/03/26 01:25:58;;;;;;;0.30;0.30;;;;;;;15.42;57.51;100692.09;5050118;28;20020;-70
2023/03/26 01:28:25;;;;;;;0.20;0.20;;;;;;;15.20;58.02;100681.34;5056542;28;20027;-70
2023/03/26 01:31:08;;;;;;;0.15;0.15;;;;;;;15.06;59.47;100674.72;5050197;28;20078;-71
2023/03/26 01:33:56;;;;;;;0.40;0.40;;;;;;;14.51;60.94;100671.50;5033779;28;20029;-71
2023/03/26 01:36:43;;;;;;;0.30;0.30;;;;;;;15.75;57.56;100662.78;5049935;28;20037;-70
2023/03/26 01:39:30;;;;;;;0.30;0.30;;;;;;;16.26;55.57;100674.63;5052217;28;20086;-70
2023/03/26 01:42:09;;;;;;;0.40;0.40;;;;;;;15.41;57.94;100674.97;5054107;28;20029;-71
2023/03/26 01:44:44;;;;;;;0.30;0.30;;;;;;;14.81;60.18;100672.63;5054045;28;20033;-68
2023/03/26 01:47:12;;;;;;;0.20;0.20;;;;;;;15.82;57.08;100671.47;5053665;28;20516;-70
2023/03/26 01:49:37;;;;;;;0.30;0.30;;;;;;;15.54;57.91;100666.44;5053712;28;20025;-70
2023/03/26 01:52:11;;;;;;;0.38;0.38;;;;;;;15.51;57.85;100660.72;5054488;28;20016;-71
2023/03/26 01:54:37;;;;;;;0.38;0.38;;;;;;;15.67;57.20;100657.03;5053835;28;20432;-69
2023/03/26 01:57:19;;;;;;;0.38;0.38;;;;;;;15.16;58.92;100661.28;5054190;28;20139;-70
2023/03/26 02:00:28;;;;;;;0.30;0.30;;;;;;;15.31;58.94;100661.38;5039138;28;20029;-69
2023/03/26 02:03:16;;;;;;;0.30;0.30;;;;;;;15.32;58.73;100657.59;5049731;28;20049;-69
2023/03/26 02:05:45;;;;;;;0.40;0.40;;;;;;;16.20;55.94;100645.88;5038016;28;20127;-69
2023/03/26 02:08:19;;;;;;;0.20;0.20;;;;;;;16.52;54.72;100634.84;5031976;28;20297;-70
2023/03/26 02:10:48;;;;;;;0.20;0.20;;;;;;;16.59;54.12;100630.78;5053203;28;20025;-69
2023/03/26 02:13:14;;;;;;;0.38;0.38;;;;;;;16.28;54.78;100633.69;5052895;28;20029;-70
2023/03/26 02:15:40;;;;;;;0.40;0.40;;;;;;;15.93;55.55;100628.97;5038198;28;20052;-70
2023/03/26 02:18:09;;;;;;;0.20;0.20;;;;;;;15.95;56.01;100624.09;5045320;28;20037;-70
2023/03/26 02:20:35;;;;;;;0.30;0.30;;;;;;;16.43;54.33;100625.59;5044975;28;20082;-69
2023/03/26 02:23:01;;;;;;;0.40;0.40;;;;;;;16.62;53.54;100618.59;5053452;28;20041;-69
2023/03/26 02:25:26;;;;;;;0.20;0.20;;;;;;;16.34;54.07;100617.16;5053915;28;20067;-68
2023/03/26 02:27:52;;;;;;;0.20;0.20;;;;;;;16.58;54.13;100620.22;5053297;28;20048;-70
2023/03/26 02:30:28;;;;;;;0.20;0.20;;;;;;;16.84;53.16;100608.31;5035148;28;20157;-69
2023/03/26 02:32:54;;;;;;;0.30;0.30;;;;;;;16.63;53.63;100617.50;5053610;28;20169;-71
2023/03/26 02:35:20;;;;;;;0.20;0.20;;;;;;;16.60;53.92;100608.03;5052599;28;20442;-69
2023/03/26 02:37:49;;;;;;;0.20;0.20;;;;;;;16.54;53.99;100609.09;5053350;28;20036;-70
2023/03/26 02:40:16;;;;;;;0.40;0.40;;;;;;;16.35;54.61;100612.56;5035607;28;20119;-69
2023/03/26 02:42:42;;;;;;;0.32;0.32;;;;;;;16.22;55.01;100608.47;5053026;28;20101;-70
2023/03/26 02:45:07;;;;;;;0.30;0.30;;;;;;;16.55;54.07;100601.75;5053309;28;20029;-70
2023/03/26 02:47:33;;;;;;;0.30;0.30;;;;;;;16.51;53.53;100603.41;5052777;28;20386;-69
2023/03/26 02:49:58;;;;;;;0.20;0.20;;;;;;;16.51;53.68;100597.97;5051947;28;20517;-70
2023/03/26 02:52:24;;;;;;;0.30;0.30;;;;;;;16.32;54.34;100600.34;5053486;28;20029;-69
2023/03/26 02:54:49;;;;;;;0.20;0.20;;;;;;;16.27;54.69;100599.53;5052614;28;20041;-70
2023/03/26 02:57:15;;;;;;;0.30;0.30;;;;;;;16.33;54.54;100595.75;5052985;28;20585;-69
2023/03/26 02:59:40;;;;;;;0.20;0.20;;;;;;;16.39;54.04;100592.75;5052724;28;20044;-69
2023/03/26 03:02:05;;;;;;;0.20;0.20;;;;;;;16.36;53.96;100585.16;5052937;28;20028;-70
2023/03/26 03:04:31;;;;;;;0.20;0.20;;;;;;;16.33;54.30;100580.28;5052308;28;20029;-71
2023/03/26 03:06:56;;;;;;;0.20;0.20;;;;;;;16.17;54.81;100575.94;5052018;28;20029;-69
2023/03/26 03:09:22;;;;;;;0.10;0.10;;;;;;;16.34;54.29;100586.50;5052844;28;20747;-69
2023/03/26 03:11:47;;;;;;;0.38;0.38;;;;;;;15.98;55.06;100579.41;5052564;28;20071;-71
2023/03/26 03:14:13;;;;;;;0.20;0.20;;;;;;;16.13;54.64;100571.28;5052612;28;20083;-69
2023/03/26 03:16:38;;;;;;;0.20;0.20;;;;;;;16.30;53.94;100559.13;5052511;28;20029;-70
2023/03/26 03:19:04;;;;;;;0.30;0.30;;;;;;;16.29;53.73;100565.66;5052828;28;20503;-71
2023/03/26 03:21:30;;;;;;;0.10;0.10;;;;;;;16.16;53.55;100555.31;5052036;28;20029;-70
2023/03/26 03:23:56;;;;;;;0.30;0.30;;;;;;;15.88;54.77;100558.47;5052368;28;20045;-70
2023/03/26 03:26:26;;;;;;;0.30;0.30;;;;;;;15.90;54.35;100550.09;5052250;28;20130;-69
2023/03/26 03:28:56;;;;;;;0.25;0.25;;;;;;;15.81;54.51;100550.63;5052334;28;20556;-69
2023/03/26 03:31:23;;;;;;;0.20;0.20;;;;;;;15.74;54.54;100557.38;5052482;28;20077;-69
2023/03/26 03:33:49;;;;;;;0.30;0.30;;;;;;;15.60;55.18;100546.22;5051756;28;20060;-70
2023/03/26 03:36:22;;;;;;;0.30;0.30;;;;;;;15.44;55.66;100543.69;5051725;28;20083;-70
2023/03/26 03:38:49;;;;;;;0.30;0.30;;;;;;;15.56;54.91;100542.41;5052045;28;20079;-68
2023/03/26 03:41:16;;;;;;;0.40;0.40;;;;;;;15.58;55.08;100547.56;5051669;28;20041;-70
2023/03/26 03:43:41;;;;;;;0.30;0.30;;;;;;;15.64;55.24;100550.03;5052043;28;20028;-69
2023/03/26 03:46:06;;;;;;;0.30;0.30;;;;;;;15.65;55.55;100553.53;5052533;28;20388;-69
2023/03/26 03:48:32;;;;;;;0.35;0.35;;;;;;;15.62;55.20;100554.91;5052131;28;20540;-69
2023/03/26 03:50:58;;;;;;;0.30;0.30;;;;;;;15.61;55.49;100545.13;5051685;28;20508;-68
2023/03/26 03:53:25;;;;;;;0.30;0.30;;;;;;;15.70;55.26;100554.34;5051762;28;20501;-70
2023/03/26 03:55:54;;;;;;;0.30;0.30;;;;;;;15.81;55.38;100550.63;5051770;28;20045;-70
2023/03/26 03:58:22;;;;;;;0.20;0.20;;;;;;;15.68;56.15;100548.41;5052058;28;20095;-69
2023/03/26 04:00:51;;;;;;;0.30;0.30;;;;;;;14.64;60.05;100552.91;5051380;28;20025;-71
2023/03/26 04:03:18;;;;;;;0.40;0.40;;;;;;;15.62;57.30;100554.06;5050456;28;20041;-69
2023/03/26 04:05:48;;;;;;;0.30;0.30;;;;;;;15.57;57.17;100544.03;5050883;28;20056;-71
2023/03/26 04:08:16;;;;;;;0.38;0.38;;;;;;;15.76;56.54;100541.66;5051513;28;20047;-69
2023/03/26 04:10:43;;;;;;;0.30;0.30;;;;;;;15.63;56.60;100544.84;5051694;28;20380;-70
2023/03/26 04:13:12;;;;;;;0.20;0.20;;;;;;;15.43;57.03;100550.22;5052085;28;20029;-70
2023/03/26 04:15:37;;;;;;;0.40;0.40;;;;;;;15.69;56.71;100547.31;5051185;28;20605;-70
2023/03/26 04:18:03;;;;;;;0.30;0.30;;;;;;;15.48;57.44;100542.91;5051201;28;20036;-71
2023/03/26 04:20:28;;;;;;;0.40;0.40;;;;;;;15.77;56.39;100538.69;5051130;28;20086;-70
2023/03/26 04:22:54;;;;;;;0.40;0.40;;;;;;;15.76;55.93;100536.25;5051160;28;20108;-69
2023/03/26 04:25:20;;;;;;;0.20;0.20;;;;;;;15.72;56.04;100538.66;5051560;28;20032;-69
2023/03/26 04:27:46;;;;;;;0.35;0.35;;;;;;;15.70;55.94;100534.59;5051125;28;20119;-70
2023/03/26 04:30:16;;;;;;;0.25;0.25;;;;;;;15.56;55.96;100534.28;5051304;28;20032;-69
2023/03/26 04:32:41;;;;;;;0.30;0.30;;;;;;;15.47;55.78;100530.44;5050918;28;20028;-69
2023/03/26 04:35:12;;;;;;;0.30;0.30;;;;;;;15.71;55.73;100526.19;5050751;28;20040;-70
2023/03/26 04:37:40;;;;;;;0.30;0.30;;;;;;;15.44;55.67;100527.44;5050613;28;20443;-69
2023/03/26 04:40:12;;;;;;;0.30;0.30;;;;;;;15.40;55.48;100523.63;5051216;28;20041;-69
2023/03/26 04:42:44;;;;;;;0.20;0.20;;;;;;;15.44;55.68;100519.34;5050913;28;20110;-70
2023/03/26 04:45:11;;;;;;;0.50;0.50;;;;;;;15.44;55.71;100528.28;5051128;28;20037;-70
2023/03/26 04:47:37;;;;;;;0.20;0.20;;;;;;;15.42;55.82;100524.19;5050612;28;20037;-70
2023/03/26 04:50:04;;;;;;;0.30;0.30;;;;;;;15.45;55.64;100515.56;5050526;28;20129;-71
2023/03/26 04:52:29;;;;;;;0.20;0.20;;;;;;;15.52;55.29;100527.78;5051023;28;20165;-69
2023/03/26 04:54:56;;;;;;;0.20;0.20;;;;;;;15.59;55.35;100525.63;5050702;28;20033;-69
2023/03/26 04:57:31;;;;;;;0.20;0.20;;;;;;;15.59;55.68;100522.09;5050547;28;20056;-71
2023/03/26 04:59:57;;;;;;;0.40;0.40;;;;;;;15.57;55.55;100519.66;5050777;28;20390;-68
2023/03/26 05:02:23;;;;;;;0.30;0.30;;;;;;;15.64;55.78;100514.00;5049933;28;20037;-69
2023/03/26 05:04:49;;;;;;;0.30;0.30;;;;;;;15.67;55.51;100513.44;5050315;28;20528;-70
2023/03/26 05:07:18;;;;;;;0.30;0.30;;;;;;;15.68;55.63;100513.19;5050569;28;20061;-68
2023/03/26 05:09:43;;;;;;;0.30;0.30;;;;;;;15.70;55.79;100508.31;5050391;28;20562;-70
2023/03/26 05:12:09;;;;;;;0.30;0.30;;;;;;;15.61;56.05;100503.69;5050232;28;20129;-70
2023/03/26 05:14:35;;;;;;;0.30;0.30;;;;;;;15.67;56.48;100502.63;5049883;28;20366;-70
2023/03/26 05:17:04;;;;;;;0.30;0.30;;;;;;;15.72;56.56;100502.66;5050294;28;20116;-69
2023/03/26 05:19:31;;;;;;;0.30;0.30;;;;;;;15.96;55.81;100508.38;5051175;28;20025;-69
2023/03/26 05:21:56;;;;;;;0.50;0.50;;;;;;;15.92;56.09;100510.78;5049997;28;20448;-70
2023/03/26 05:24:23;;;;;;;0.50;0.50;;;;;;;15.98;56.23;100507.00;5050133;28;20120;-70
2023/03/26 05:26:49;;;;;;;0.28;0.28;;;;;;;15.95;56.51;100502.16;5050137;28;20500;-69
2023/03/26 05:29:16;;;;;;;0.40;0.40;;;;;;;16.09;56.15;100497.00;5050436;28;20036;-71
2023/03/26 05:31:43;;;;;;;0.25;0.25;;;;;;;16.06;56.17;100492.94;5049928;28;20117;-71
2023/03/26 05:34:08;;;;;;;0.22;0.22;;;;;;;16.07;56.48;100496.47;5046791;28;20040;-70
2023/03/26 05:36:34;;;;;;;0.25;0.25;;;;;;;16.16;56.32;100489.41;5050117;28;20463;-69
2023/03/26 05:39:00;;;;;;;0.32;0.32;;;;;;;16.04;56.23;100486.19;5050429;28;20037;-70
2023/03/26 05:41:25;;;;;;;0.30;0.30;;;;;;;16.53;55.29;100482.66;5049955;28;20044;-70
2023/03/26 05:43:50;;;;;;;0.32;0.32;;;;;;;16.19;56.44;100475.34;5050159;28;20032;-70
2023/03/26 05:46:16;;;;;;;0.25;0.25;;;;;;;16.14;55.79;100472.59;5050618;28;20029;-69
2023/03/26 05:48:42;;;;;;;0.40;0.40;;;;;;;16.05;56.60;100466.09;5058421;28;20082;-69
2023/03/26 05:51:07;;;;;;;0.30;0.30;;;;;;;15.76;57.42;100458.47;5070390;28;20460;-71
2023/03/26 05:53:33;;;;;;;0.32;0.32;;;;;;;15.99;57.10;100459.88;5059726;28;20608;-71
2023/03/26 05:55:58;;;;;;;0.30;0.30;;;;;;;15.97;56.78;100444.97;5049901;28;20025;-69
2023/03/26 05:58:25;;;;;;;0.30;0.30;;;;;;;16.06;56.23;100446.06;5050394;28;20033;-69
2023/03/26 06:01:04;;;;;;;0.30;0.30;;;;;;;16.15;56.76;100447.13;5049977;28;20425;-70
2023/03/26 06:03:30;;;;;;;0.30;0.30;;;;;;;16.09;56.88;100443.63;5049932;28;20049;-69
2023/03/26 06:05:56;;;;;;;0.32;0.32;;;;;;;16.37;56.11;100440.34;5049802;28;20052;-69
2023/03/26 06:08:21;;;;;;;0.40;0.40;;;;;;;16.62;55.50;100442.25;5049737;28;20424;-70
2023/03/26 06:10:47;;;;;;;0.30;0.30;;;;;;;16.69;55.30;100446.28;5049732;28;20033;-70
2023/03/26 06:13:15;;;;;;;0.40;0.40;;;;;;;16.63;55.68;100454.72;5050581;28;20037;-70
2023/03/26 06:15:40;;;;;;;0.40;0.40;;;;;;;16.45;56.37;100439.00;5049543;28;20049;-70
2023/03/26 06:18:05;;;;;;;0.30;0.30;;;;;;;16.63;56.12;100443.84;5049600;28;20111;-70
2023/03/26 06:20:31;;;;;;;0.30;0.30;;;;;;;16.68;55.72;100443.88;5049708;28;20136;-69
2023/03/26 06:22:56;;;;;;;0.30;0.30;;;;;;;16.57;55.77;100443.06;5049477;28;20175;-69
2023/03/26 06:25:21;;;;;;;0.20;0.20;;;;;;;16.93;55.35;100437.53;5051191;28;20048;-71
2023/03/26 06:27:47;;;;;;;0.35;0.35;;;;;;;17.03;55.09;100432.91;5053298;28;20065;-70
2023/03/26 06:30:12;;;;;;;0.30;0.30;;;;;;;17.18;54.42;100429.28;5053762;28;20044;-70
2023/03/26 06:32:38;;;;;;;0.30;0.30;;;;;;;17.07;54.90;100425.81;5053275;28;20044;-70
2023/03/26 06:35:05;;;;;;;0.32;0.32;;;;;;;17.08;54.96;100423.94;5049427;28;20496;-70
2023/03/26 06:37:30;;;;;;;0.17;0.17;;;;;;;17.11;54.85;100426.06;5053689;28;20033;-70
2023/03/26 06:39:55;;;;;;;0.30;0.30;;;;;;;17.35;54.68;100419.72;5035361;28;20040;-69
2023/03/26 06:42:21;;;;;;;0.40;0.40;;;;;;;17.34;54.02;100423.53;5053171;28;20321;-71
2023/03/26 06:44:46;;;;;;;0.20;0.20;;;;;;;17.31;54.54;100420.56;5053169;28;20041;-71
2023/03/26 06:47:11;;;;;;;0.50;0.50;;;;;;;17.29;53.80;100420.84;5052873;28;20112;-70
2023/03/26 06:49:38;;;;;;;0.30;0.30;;;;;;;17.32;54.53;100427.59;5034548;28;20503;-69
2023/03/26 06:52:03;;;;;;;0.30;0.30;;;;;;;17.33;54.38;100421.91;5053177;28;20037;-70
2023/03/26 06:54:29;;;;;;;0.30;0.30;;;;;;;17.33;54.59;100412.94;5052750;28;20048;-69
2023/03/26 06:56:55;;;;;;;0.25;0.25;;;;;;;17.45;53.69;100414.22;5052869;28;20045;-69
2023/03/26 06:59:20;;;;;;;0.20;0.20;;;;;;;17.17;54.67;100414.09;5053107;28;20029;-70
2023/03/26 07:01:46;;;;;;;0.30;0.30;;;;;;;16.76;55.04;100412.63;5046300;28;20090;-69
2023/03/26 07:04:11;;;;;;;0.10;0.10;;;;;;;16.31;57.20;100410.81;5036505;28;20034;-70
2023/03/26 07:06:36;;;;;;;0.20;0.20;;;;;;;17.14;54.62;100415.47;5032747;28;20042;-71
2023/03/26 07:09:02;;;;;;;0.30;0.30;;;;;;;17.16;54.06;100409.78;5034018;28;20025;-69
2023/03/26 07:11:28;;;;;;;0.40;0.40;;;;;;;17.03;54.29;100402.22;5055347;28;20036;-69
2023/03/26 07:13:55;;;;;;;0.30;0.30;;;;;;;17.01;53.72;100401.69;5060317;28;20385;-70
2023/03/26 07:16:21;;;;;;;0.40;0.40;;;;;;;16.75;55.38;100395.53;5055733;28;20512;-70
2023/03/26 07:18:46;;;;;;;0.30;0.30;;;;;;;16.64;55.20;100402.09;5062695;28;20404;-70
2023/03/26 07:21:12;;;;;;;0.30;0.30;;;;;;;16.69;54.52;100396.63;5055451;28;20048;-69
2023/03/26 07:23:38;;;;;;;0.40;0.40;;;;;;;16.72;54.89;100392.56;5066968;28;20046;-70
2023/03/26 07:26:41;;;;;;;0.50;0.50;;;;;;;16.80;54.32;100400.97;5056803;28;20109;-69
2023/03/26 07:29:17;;;;;;;0.30;0.30;;;;;;;15.91;57.08;100392.66;4956884;28;20071;-70
2023/03/26 07:31:53;;;;;;;0.32;0.32;;;;;;;16.50;55.24;100393.72;4950570;28;20042;-69
2023/03/26 07:34:30;;;;;;;0.20;0.20;;;;;;;16.24;55.88;100397.50;4950845;28;20043;-68
2023/03/26 07:37:01;;;;;;;0.40;0.40;;;;;;;16.88;53.89;100391.44;4952083;28;20319;-69
2023/03/26 07:39:50;;;;;;;0.20;0.20;;;;;;;17.09;54.26;100398.38;4942249;28;20048;-70
2023/03/26 07:42:25;;;;;;;0.20;0.20;;;;;;;16.27;56.09;100390.75;4934191;29;20078;-68
2023/03/26 07:44:56;;;;;;;0.30;0.30;;;;;;;16.50;54.80;100392.91;4941653;28;20520;-71
2023/03/26 07:47:33;;;;;;;0.38;0.38;;;;;;;16.63;54.64;100393.13;4948592;28;20039;-69
2023/03/26 07:49:59;;;;;;;0.28;0.28;;;;;;;16.45;54.46;100385.53;4950386;28;20039;-70
2023/03/26 07:52:25;;;;;;;0.30;0.30;;;;;;;16.60;54.17;100390.16;4950617;29;20154;-69
2023/03/26 07:54:51;;;;;;;0.20;0.20;;;;;;;15.56;55.66;100396.16;4950492;28;20047;-69
2023/03/26 07:58:05;;;;;;;0.40;0.40;;;;;;;16.44;53.97;100394.78;4950892;28;20042;-69
2023/03/26 08:00:36;;;;;;;0.20;0.20;;;;;;;16.36;52.93;100389.09;4912457;29;20040;-71
2023/03/26 08:03:36;;;;;;;0.30;0.30;;;;;;;17.63;50.02;100392.97;4912755;29;20050;-70
2023/03/26 08:06:14;;;;;;;0.32;0.32;;;;;;;17.19;50.55;100401.06;4958514;28;20042;-69
2023/03/26 08:08:55;;;;;;;0.30;0.30;;;;;;;17.05;52.16;100400.03;4989276;28;20125;-70
2023/03/26 08:11:24;;;;;;;0.25;0.25;;;;;;;17.44;50.84;100398.19;4989202;28;20035;-70
2023/03/26 08:14:07;;;;;;;0.22;0.22;;;;;;;18.23;49.86;100398.72;4989252;28;20038;-70
2023/03/26 08:16:50;;;;;;;0.35;0.35;;;;;;;17.28;50.00;100393.94;4989805;28;20099;-71
2023/03/26 08:19:51;;;;;;;0.30;0.30;;;;;;;16.69;52.63;100397.44;4970088;28;20125;-69
2023/03/26 08:22:26;;;;;;;0.30;0.30;;;;;;;17.69;49.61;100400.78;4912477;29;20063;-70
2023/03/26 08:25:10;;;;;;;0.30;0.30;;;;;;;18.07;48.86;100399.94;4893908;29;20044;-71
2023/03/26 08:27:39;;;;;;;0.25;0.25;;;;;;;17.80;49.44;100405.06;4923800;29;20555;-70
2023/03/26 08:30:17;;;;;;;0.32;0.32;;;;;;;17.76;49.56;100398.56;4931140;29;20039;-71
2023/03/26 08:32:51;;;;;;;0.20;0.20;;;;;;;16.76;51.57;100396.34;4930952;29;20083;-71
2023/03/26 08:35:17;;;;;;;0.25;0.25;;;;;;;17.24;50.68;100398.31;4916407;29;20071;-71
2023/03/26 08:37:44;;;;;;;0.20;0.20;;;;;;;17.03;50.71;100396.78;4957706;28;20422;-70
2023/03/26 08:40:10;;;;;;;0.20;0.20;;;;;;;17.02;50.49;100398.69;4969902;28;20043;-69
2023/03/26 08:43:08;;;;;;;0.20;0.20;;;;;;;16.97;50.26;100397.91;4969636;28;20041;-70
2023/03/26 08:46:24;;;;;;;0.20;0.20;;;;;;;17.69;49.26;100398.06;4969866;28;20594;-70
2023/03/26 08:49:00;;;;;;;0.20;0.20;;;;;;;17.49;49.01;100392.78;4948752;28;20052;-70
2023/03/26 08:52:02;;;;;;;0.20;0.20;;;;;;;17.37;48.99;100393.09;4950180;28;20032;-70
2023/03/26 08:54:57;;;;;;;0.30;0.30;;;;;;;16.97;49.33;100393.28;4949707;28;20504;-70
2023/03/26 08:57:40;;;;;;;0.20;0.20;;;;;;;16.98;49.48;100392.19;4949782;29;20471;-70
2023/03/26 09:00:33;;;;;;;0.20;0.20;;;;;;;16.81;49.50;100391.72;4949837;29;20070;-70
2023/03/26 09:03:10;;;;;;;0.20;0.20;;;;;;;17.28;48.44;100397.47;4951852;28;20038;-70
2023/03/26 09:06:20;;;;;;;0.28;0.28;;;;;;;17.29;47.08;100396.41;4967178;28;20050;-69
2023/03/26 09:09:20;;;;;;;0.20;0.20;;;;;;;17.67;45.79;100396.75;4915348;29;20131;-70
2023/03/26 09:12:06;;;;;;;0.22;0.22;;;;;;;16.98;47.44;100394.91;4855119;29;20392;-70
2023/03/26 09:15:05;;;;;;;0.30;0.30;;;;;;;17.62;46.84;100388.59;4855664;29;20063;-70
2023/03/26 09:17:39;;;;;;;0.30;0.30;;;;;;;16.95;47.26;100391.94;4855030;29;20042;-69
2023/03/26 09:20:32;;;;;;;0.30;0.30;;;;;;;17.62;46.61;100388.59;4855445;29;20029;-70
2023/03/26 09:22:57;;;;;;;0.30;0.30;;;;;;;16.92;46.96;100395.22;4855205;29;20041;-71
2023/03/26 09:25:47;;;;;;;0.30;0.30;;;;;;;17.19;47.32;100396.44;4874031;29;20124;-71
2023/03/26 09:28:42;;;;;;;0.25;0.25;;;;;;;17.05;48.22;100394.59;4873963;29;20550;-69
2023/03/26 09:31:14;;;;;;;0.30;0.30;;;;;;;17.07;48.53;100395.97;4874063;29;20048;-70
2023/03/26 09:34:16;;;;;;;0.28;0.28;;;;;;;17.45;47.33;100394.41;4873138;29;20045;-70
2023/03/26 09:37:19;;;;;;;0.30;0.30;;;;;;;17.38;47.62;100389.28;4855082;29;20034;-70
2023/03/26 09:40:17;;;;;;;0.20;0.20;;;;;;;17.64;46.30;100397.28;4873039;29;20053;-70
2023/03/26 09:42:48;;;;;;;0.20;0.20;;;;;;;16.82;47.49;100393.34;4870409;29;20053;-70
2023/03/26 09:45:51;;;;;;;0.20;0.20;;;;;;;17.50;46.95;100400.66;4918016;28;20041;-70
2023/03/26 09:48:30;;;;;;;0.30;0.30;;;;;;;17.02;46.97;100395.19;4984626;28;20029;-69
2023/03/26 09:51:02;;;;;;;0.40;0.40;;;;;;;17.28;46.46;100396.66;5030294;28;20061;-70
2023/03/26 09:53:56;;;;;;;0.30;0.30;;;;;;;17.40;47.05;100403.38;5029628;28;20091;-70
2023/03/26 09:56:21;;;;;;;0.50;0.50;;;;;;;17.47;46.14;100400.38;5030021;28;20427;-70
2023/03/26 09:59:11;;;;;;;0.20;0.20;;;;;;;17.02;48.04;100406.03;5029704;28;20120;-69
2023/03/26 10:01:52;;;;;;;0.30;0.30;;;;;;;17.12;48.27;100404.06;5032947;28;20038;-71
2023/03/26 10:04:44;;;;;;;0.20;0.20;;;;;;;17.88;46.29;100411.78;5034065;28;20029;-71
2023/03/26 10:07:35;;;;;;;0.13;0.13;;;;;;;17.64;45.78;100411.69;5036290;28;20068;-70
2023/03/26 10:10:18;;;;;;;0.30;0.30;;;;;;;17.25;45.78;100421.66;5033720;28;20051;-69
2023/03/26 10:12:56;;;;;;;0.40;0.40;;;;;;;17.15;47.08;100422.53;5051289;28;20033;-71
2023/03/26 10:16:11;;;;;;;0.30;0.30;;;;;;;17.15;47.73;100425.25;5053287;28;20116;-71
2023/03/26 10:18:47;;;;;;;0.20;0.20;;;;;;;17.00;47.22;100432.66;4952681;28;20530;-71
2023/03/26 10:21:44;;;;;;;0.30;0.30;;;;;;;16.86;48.11;100420.75;4936502;29;20039;-71
2023/03/26 10:24:15;;;;;;;0.20;0.20;;;;;;;16.60;47.78;100428.13;4951644;28;20252;-70
2023/03/26 10:27:03;;;;;;;0.20;0.20;;;;;;;16.48;49.16;100428.44;4948174;28;20051;-71
2023/03/26 10:29:43;;;;;;;0.40;0.40;;;;;;;17.44;45.96;100423.47;4951879;28;20067;-72
2023/03/26 10:32:16;;;;;;;0.25;0.25;;;;;;;17.13;46.17;100427.44;4944785;28;20054;-71
2023/03/26 10:35:15;;;;;;;0.15;0.15;;;;;;;16.86;46.81;100431.59;4943185;28;20078;-70
2023/03/26 10:38:04;;;;;;;0.20;0.20;;;;;;;17.59;45.79;100427.22;4928862;29;20023;-71
2023/03/26 10:40:41;;;;;;;0.20;0.20;;;;;;;18.25;43.63;100426.44;4934199;29;20054;-72
2023/03/26 10:43:36;;;;;;;0.30;0.30;;;;;;;17.74;44.50;100433.38;4952134;29;20051;-69
2023/03/26 10:46:20;;;;;;;0.25;0.25;;;;;;;17.23;45.23;100429.28;4894705;29;20056;-70
2023/03/26 10:48:51;;;;;;;0.10;0.10;;;;;;;17.43;44.70;100437.34;4894852;29;20043;-70
2023/03/26 10:51:35;;;;;;;0.30;0.30;;;;;;;17.36;45.38;100432.19;4894958;29;20447;-69
2023/03/26 10:54:23;;;;;;;0.20;0.20;;;;;;;17.56;44.06;100428.59;4924734;29;20052;-69
2023/03/26 10:56:50;;;;;;;0.20;0.20;;;;;;;17.67;43.24;100438.28;4952080;29;20046;-70
2023/03/26 10:59:17;;;;;;;0.30;0.30;;;;;;;17.00;44.24;100435.38;4951748;29;20400;-68
2023/03/26 11:01:48;;;;;;;0.20;0.20;;;;;;;16.83;45.18;100443.81;4935862;29;20050;-70
2023/03/26 11:04:44;;;;;;;0.20;0.20;;;;;;;16.47;45.78;100439.53;4950474;29;20315;-70
2023/03/26 11:07:20;;;;;;;0.22;0.22;;;;;;;17.24;43.30;100434.44;4945536;29;20055;-69
2023/03/26 11:09:49;;;;;;;0.20;0.20;;;;;;;18.27;40.84;100437.03;4948560;29;20035;-70
2023/03/26 11:12:29;;;;;;;0.20;0.20;;;;;;;18.57;40.76;100441.41;4940518;29;20535;-70
2023/03/26 11:15:17;;;;;;;0.30;0.30;;;;;;;19.09;40.33;100435.91;4948428;29;20035;-69
2023/03/26 11:18:10;;;;;;;0.40;0.40;;;;;;;18.60;41.48;100436.19;4950357;29;20083;-71
2023/03/26 11:20:49;;;;;;;0.28;0.28;;;;;;;18.72;40.57;100433.91;4951847;29;20047;-71
2023/03/26 11:23:28;;;;;;;0.20;0.20;;;;;;;19.34;40.51;100435.63;5034376;28;20505;-69
2023/03/26 11:26:16;;;;;;;0.20;0.20;;;;;;;19.41;38.96;100438.81;5051783;28;20539;-70
2023/03/26 11:28:58;;;;;;;0.25;0.25;;;;;;;18.24;41.17;100438.41;5051530;28;20025;-71
2023/03/26 11:31:46;;;;;;;0.22;0.22;;;;;;;19.13;39.54;100445.13;5047812;28;20020;-71
2023/03/26 11:34:17;;;;;;;0.10;0.10;;;;;;;19.08;39.40;100440.59;5049533;28;20531;-69
2023/03/26 11:36:50;;;;;;;0.20;0.20;;;;;;;18.86;39.08;100450.34;5050372;28;20053;-69
2023/03/26 11:39:24;;;;;;;0.20;0.20;;;;;;;18.31;39.25;100441.63;5051338;28;20082;-70
2023/03/26 11:42:03;;;;;;;0.40;0.40;;;;;;;17.60;41.71;100442.41;5051629;28;20037;-69
2023/03/26 11:44:36;;;;;;;0.25;0.25;;;;;;;18.77;39.75;100436.56;5051915;28;20040;-68
2023/03/26 11:47:08;;;;;;;0.10;0.10;;;;;;;18.06;38.86;100447.25;5051785;28;20033;-69
2023/03/26 11:49:35;;;;;;;0.20;0.20;;;;;;;18.29;39.63;100438.38;5051760;28;20040;-70
2023/03/26 11:52:02;;;;;;;0.20;0.20;;;;;;;18.61;39.49;100439.75;5051906;28;20028;-68